createdAt,value
2023-05-14T00:01:25.261Z,21.45
2023-05-14T00:03:52.017Z,25.15
2023-05-14T00:06:18.666Z,23.42
2023-05-14T00:08:45.231Z,22.27
2023-05-14T00:11:11.671Z,24.55
2023-05-14T00:13:38.266Z,24.50
2023-05-14T00:16:05.161Z,25.88
2023-05-14T00:18:31.813Z,22.88
2023-05-14T00:20:58.499Z,20.75
2023-05-14T00:23:24.991Z,22.52
2023-05-14T00:25:51.439Z,21.63
2023-05-14T00:28:17.968Z,20.85
2023-05-14T00:30:44.777Z,28.70
2023-05-14T00:33:11.505Z,21.63
2023-05-14T00:35:38.363Z,22.42
2023-05-14T00:38:05.125Z,22.10
2023-05-14T00:40:31.752Z,24.38
2023-05-14T00:42:58.186Z,26.70
2023-05-14T00:45:25.669Z,21.48
2023-05-14T00:47:53.497Z,23.00
2023-05-14T00:50:20.898Z,24.17
2023-05-14T00:52:47.766Z,22.50
2023-05-14T00:55:16.557Z,24.50
2023-05-14T00:57:43.481Z,21.92
2023-05-14T01:00:10.764Z,19.65
2023-05-14T01:02:37.397Z,22.90
2023-05-14T01:05:04.507Z,20.42
2023-05-14T01:07:43.065Z,24.02
2023-05-14T01:10:21.694Z,20.98
2023-05-14T01:12:57.395Z,25.88
2023-05-14T01:15:30.033Z,22.15
2023-05-14T01:18:03.824Z,24.23
2023-05-14T01:20:30.393Z,22.35
2023-05-14T01:22:56.893Z,24.90
2023-05-14T01:25:23.433Z,23.58
2023-05-14T01:27:58.636Z,23.13
2023-05-14T01:30:42.016Z,19.58
2023-05-14T01:33:13.585Z,21.00
2023-05-14T01:35:40.908Z,22.13
2023-05-14T01:38:10.584Z,21.95
2023-05-14T01:40:37.473Z,21.33
2023-05-14T01:43:04.770Z,22.50
2023-05-14T01:45:31.759Z,26.35
2023-05-14T01:47:58.320Z,23.13
2023-05-14T01:50:25.140Z,23.45
2023-05-14T01:52:53.502Z,21.95
2023-05-14T01:55:20.159Z,22.70
2023-05-14T01:57:46.624Z,22.02
2023-05-14T02:00:13.656Z,25.25
2023-05-14T02:02:40.146Z,20.92
2023-05-14T02:05:07.217Z,23.58
2023-05-14T02:07:33.812Z,23.70
2023-05-14T02:10:00.318Z,23.98
2023-05-14T02:12:26.850Z,26.48
2023-05-14T02:14:53.553Z,24.92
2023-05-14T02:17:20.248Z,24.90
2023-05-14T02:19:46.916Z,24.52
2023-05-14T02:22:13.814Z,25.05
2023-05-14T02:24:41.066Z,27.80
2023-05-14T02:27:07.550Z,23.33
2023-05-14T02:29:34.050Z,23.25
2023-05-14T02:32:00.538Z,27.42
2023-05-14T02:34:27.007Z,27.65
2023-05-14T02:36:53.448Z,25.50
2023-05-14T02:39:19.869Z,25.40
2023-05-14T02:41:46.387Z,27.50
2023-05-14T02:44:12.874Z,24.92
2023-05-14T02:46:39.344Z,27.17
2023-05-14T02:49:05.799Z,30.38
2023-05-14T02:51:32.305Z,28.02
2023-05-14T02:53:58.849Z,25.98
2023-05-14T02:56:26.418Z,27.33
2023-05-14T02:58:52.915Z,25.40
2023-05-14T03:01:19.945Z,26.00
2023-05-14T03:03:46.857Z,31.40
2023-05-14T03:06:13.820Z,24.83
2023-05-14T03:08:40.270Z,28.75
2023-05-14T03:11:06.963Z,26.65
2023-05-14T03:13:33.418Z,25.70
2023-05-14T03:15:59.884Z,25.73
2023-05-14T03:18:28.271Z,31.45
2023-05-14T03:20:54.782Z,24.17
2023-05-14T03:23:21.305Z,25.42
2023-05-14T03:25:47.785Z,29.73
2023-05-14T03:28:14.278Z,24.08
2023-05-14T03:30:40.736Z,22.65
2023-05-14T03:33:07.338Z,27.65
2023-05-14T03:35:33.954Z,27.00
2023-05-14T03:38:00.525Z,22.33
2023-05-14T03:40:27.096Z,26.30
2023-05-14T03:42:53.602Z,27.65
2023-05-14T03:45:20.090Z,24.70
2023-05-14T03:47:46.592Z,23.77
2023-05-14T03:50:13.054Z,27.27
2023-05-14T03:52:40.425Z,26.25
2023-05-14T03:55:07.299Z,25.98
2023-05-14T03:57:33.877Z,24.92
2023-05-14T04:00:00.329Z,27.80
2023-05-14T04:02:26.794Z,25.92
2023-05-14T04:04:53.350Z,26.98
2023-05-14T04:07:19.889Z,27.67
2023-05-14T04:09:46.399Z,27.60
2023-05-14T04:12:12.879Z,29.48
2023-05-14T04:14:39.397Z,23.50
2023-05-14T04:17:05.911Z,24.73
2023-05-14T04:19:32.470Z,25.23
2023-05-14T04:21:58.938Z,27.17
2023-05-14T04:24:25.452Z,27.27
2023-05-14T04:26:51.904Z,26.85
2023-05-14T04:29:18.377Z,26.83
2023-05-14T04:31:44.877Z,25.88
2023-05-14T04:34:11.423Z,27.75
2023-05-14T04:36:37.875Z,33.28
2023-05-14T04:39:04.365Z,28.45
2023-05-14T04:41:30.974Z,25.63
2023-05-14T04:43:59.024Z,26.48
2023-05-14T04:46:25.579Z,27.13
2023-05-14T04:48:52.161Z,27.70
2023-05-14T04:51:18.662Z,27.10
2023-05-14T04:53:45.074Z,27.02
2023-05-14T04:56:11.498Z,28.27
2023-05-14T04:58:37.930Z,30.05
2023-05-14T05:01:05.780Z,26.20
2023-05-14T05:03:32.421Z,26.38
2023-05-14T05:05:58.908Z,24.23
2023-05-14T05:08:26.306Z,29.73
2023-05-14T05:10:52.854Z,25.90
2023-05-14T05:13:19.355Z,26.80
2023-05-14T05:15:45.874Z,26.48
2023-05-14T05:18:12.391Z,26.83
2023-05-14T05:20:38.902Z,27.65
2023-05-14T05:23:05.377Z,25.70
2023-05-14T05:25:31.991Z,24.92
2023-05-14T05:27:58.458Z,27.13
2023-05-14T05:30:25.162Z,34.30
2023-05-14T05:32:51.973Z,28.17
2023-05-14T05:35:18.593Z,31.05
2023-05-14T05:37:45.390Z,28.50
2023-05-14T05:40:14.042Z,31.17
2023-05-14T05:42:41.147Z,29.95
2023-05-14T05:45:08.018Z,33.13
2023-05-14T05:47:34.820Z,33.63
2023-05-14T05:50:01.411Z,31.27
2023-05-14T05:52:27.899Z,34.30
2023-05-14T05:54:54.596Z,32.08
2023-05-14T05:57:22.902Z,36.58
2023-05-14T05:59:50.466Z,34.70
2023-05-14T06:02:17.058Z,35.10
2023-05-14T06:04:43.547Z,37.22
2023-05-14T06:07:09.997Z,31.85
2023-05-14T06:09:36.554Z,35.70
2023-05-14T06:12:03.111Z,30.05
2023-05-14T06:14:29.589Z,34.28
2023-05-14T06:16:56.080Z,30.55
2023-05-14T06:19:23.105Z,30.58
2023-05-14T06:21:49.667Z,33.90
2023-05-14T06:24:16.488Z,26.95
2023-05-14T06:26:42.969Z,28.98
2023-05-14T06:29:09.437Z,29.80
2023-05-14T06:31:35.932Z,30.20
2023-05-14T06:34:02.605Z,26.00
2023-05-14T06:36:29.019Z,25.67
2023-05-14T06:38:55.509Z,27.17
2023-05-14T06:41:21.937Z,23.83
2023-05-14T06:43:48.424Z,26.45
2023-05-14T06:46:14.893Z,25.58
2023-05-14T06:48:41.358Z,23.40
2023-05-14T06:51:07.864Z,22.90
2023-05-14T06:53:34.359Z,23.52
2023-05-14T06:56:00.812Z,22.67
2023-05-14T06:58:27.347Z,25.30
2023-05-14T07:00:53.972Z,22.77
2023-05-14T07:03:21.368Z,20.30
2023-05-14T07:05:48.215Z,21.52
2023-05-14T07:08:14.690Z,20.08
2023-05-14T07:10:41.256Z,21.30
2023-05-14T07:13:08.351Z,21.23
2023-05-14T07:15:34.826Z,19.38
2023-05-14T07:18:01.371Z,23.25
2023-05-14T07:20:27.985Z,23.65
2023-05-14T07:22:54.592Z,23.50
2023-05-14T07:25:21.067Z,19.33
2023-05-14T07:27:47.577Z,20.83
2023-05-14T07:30:14.280Z,21.13
2023-05-14T07:32:41.307Z,20.00
2023-05-14T07:35:08.716Z,19.75
2023-05-14T07:37:35.361Z,19.88
2023-05-14T07:40:01.896Z,19.48
2023-05-14T07:42:35.861Z,17.15
2023-05-14T07:45:04.134Z,16.52
2023-05-14T07:47:30.891Z,17.33
2023-05-14T07:49:58.201Z,16.75
2023-05-14T07:52:25.075Z,15.63
2023-05-14T07:54:51.993Z,14.15
2023-05-14T07:57:19.899Z,15.98
2023-05-14T07:59:47.532Z,17.27
2023-05-14T08:02:15.945Z,18.05
2023-05-14T08:04:43.089Z,15.50
2023-05-14T08:07:09.748Z,18.48
2023-05-14T08:09:36.466Z,14.80
2023-05-14T08:12:03.430Z,13.93
2023-05-14T08:14:29.902Z,16.35
2023-05-14T08:16:56.549Z,15.68
2023-05-14T08:19:24.362Z,14.40
2023-05-14T08:21:51.427Z,13.65
2023-05-14T08:24:18.729Z,13.65
2023-05-14T08:26:45.300Z,18.70
2023-05-14T08:29:12.964Z,18.55
2023-05-14T08:31:41.370Z,14.23
2023-05-14T08:34:07.820Z,15.57
2023-05-14T08:36:34.266Z,14.80
2023-05-14T08:39:00.756Z,15.52
2023-05-14T08:41:27.574Z,17.00
2023-05-14T08:44:03.046Z,17.90
2023-05-14T08:46:31.091Z,16.70
2023-05-14T08:49:05.185Z,16.60
2023-05-14T08:51:33.188Z,18.60
2023-05-14T08:54:02.915Z,23.90
2023-05-14T08:56:33.108Z,18.60
2023-05-14T08:59:00.274Z,21.08
2023-05-14T09:01:27.086Z,17.83
2023-05-14T09:03:54.836Z,19.30
2023-05-14T09:06:22.199Z,17.63
2023-05-14T09:08:48.747Z,16.00
2023-05-14T09:11:15.217Z,18.55
2023-05-14T09:13:41.833Z,15.43
2023-05-14T09:16:08.421Z,15.82
2023-05-14T09:18:36.401Z,14.98
2023-05-14T09:21:03.071Z,15.07
2023-05-14T09:23:33.455Z,14.98
2023-05-14T09:26:04.615Z,16.58
2023-05-14T09:28:31.139Z,13.07
2023-05-14T09:30:57.639Z,17.50
2023-05-14T09:33:31.078Z,12.95
2023-05-14T09:36:01.860Z,16.13
2023-05-14T09:38:32.515Z,11.00
2023-05-14T09:41:00.005Z,13.27
2023-05-14T09:43:26.958Z,13.40
2023-05-14T09:45:53.453Z,12.95
2023-05-14T09:48:20.024Z,11.13
2023-05-14T09:50:46.979Z,13.13
2023-05-14T09:53:14.091Z,12.98
2023-05-14T09:55:40.742Z,9.63
2023-05-14T09:58:07.253Z,9.20
2023-05-14T10:00:34.574Z,7.80
2023-05-14T10:03:06.948Z,6.68
2023-05-14T10:05:37.916Z,6.35
2023-05-14T10:08:28.356Z,5.45
2023-05-14T10:10:56.081Z,6.75
2023-05-14T10:13:27.016Z,5.63
2023-05-14T10:16:21.077Z,5.90
2023-05-14T10:18:51.849Z,6.65
2023-05-14T10:21:23.802Z,7.63
2023-05-14T10:23:51.083Z,7.53
2023-05-14T10:26:18.064Z,7.40
2023-05-14T10:28:45.497Z,6.78
2023-05-14T10:31:12.894Z,6.88
2023-05-14T10:33:50.756Z,6.53
2023-05-14T10:36:18.798Z,7.97
2023-05-14T10:38:45.387Z,6.25
2023-05-14T10:41:15.686Z,8.63
2023-05-14T10:43:42.628Z,5.63
2023-05-14T10:46:11.108Z,5.47
2023-05-14T10:48:42.020Z,5.93
2023-05-14T10:51:12.245Z,12.35
2023-05-14T10:53:42.898Z,8.13
2023-05-14T10:56:12.331Z,6.07
2023-05-14T10:58:40.320Z,6.80
2023-05-14T11:01:08.255Z,9.30
2023-05-14T11:03:43.601Z,7.15
2023-05-14T11:06:11.770Z,7.25
2023-05-14T11:08:38.723Z,7.10
2023-05-14T11:11:06.525Z,6.68
2023-05-14T11:13:34.496Z,6.40
2023-05-14T11:16:15.072Z,5.90
2023-05-14T11:18:48.065Z,7.72
2023-05-14T11:21:14.536Z,6.38
2023-05-14T11:23:41.028Z,6.47
2023-05-14T11:26:07.558Z,6.50
2023-05-14T11:28:34.339Z,9.98
2023-05-14T11:31:01.168Z,8.20
2023-05-14T11:33:27.830Z,7.25
2023-05-14T11:35:54.268Z,5.97
2023-05-14T11:38:21.336Z,8.40
2023-05-14T11:40:59.050Z,9.65
2023-05-14T11:43:29.053Z,7.90
2023-05-14T11:45:56.057Z,9.02
2023-05-14T11:48:23.962Z,5.70
2023-05-14T11:50:53.382Z,7.40
2023-05-14T11:53:24.608Z,5.72
2023-05-14T11:55:52.435Z,6.15
2023-05-14T11:58:18.981Z,5.57
2023-05-14T12:00:47.372Z,6.80
2023-05-14T12:03:13.996Z,9.07
2023-05-14T12:05:40.749Z,8.60
2023-05-14T12:08:28.289Z,6.60
2023-05-14T12:10:55.192Z,6.68
2023-05-14T12:13:24.980Z,6.18
2023-05-14T12:15:56.692Z,6.25
2023-05-14T12:18:29.332Z,5.25
2023-05-14T12:20:56.584Z,7.80
2023-05-14T12:23:26.902Z,7.68
2023-05-14T12:25:53.451Z,8.02
2023-05-14T12:28:20.846Z,5.25
2023-05-14T12:30:47.548Z,8.15
2023-05-14T12:33:14.738Z,6.32
2023-05-14T12:35:41.585Z,4.95
2023-05-14T12:38:08.149Z,5.88
2023-05-14T12:40:34.582Z,4.82
2023-05-14T12:43:01.097Z,4.15
2023-05-14T12:45:27.563Z,8.32
2023-05-14T12:47:54.157Z,4.03
2023-05-14T12:50:21.205Z,4.50
2023-05-14T12:52:47.766Z,5.00
2023-05-14T12:55:14.372Z,5.05
2023-05-14T12:57:41.627Z,10.45
2023-05-14T13:00:14.180Z,3.42
2023-05-14T13:02:42.873Z,6.07
2023-05-14T13:05:11.755Z,6.22
2023-05-14T13:07:38.654Z,3.67
2023-05-14T13:10:06.051Z,6.88
2023-05-14T13:12:32.892Z,5.22
2023-05-14T13:14:59.442Z,3.90
2023-05-14T13:17:26.142Z,3.22
2023-05-14T13:19:52.674Z,4.82
2023-05-14T13:22:19.217Z,4.65
2023-05-14T13:24:46.297Z,3.42
2023-05-14T13:27:12.989Z,4.85
2023-05-14T13:29:39.487Z,3.10
2023-05-14T13:32:06.312Z,5.95
2023-05-14T13:34:32.755Z,3.88
2023-05-14T13:36:59.248Z,4.75
2023-05-14T13:39:27.258Z,3.28
2023-05-14T13:41:57.076Z,4.40
2023-05-14T13:44:24.132Z,3.95
2023-05-14T13:46:50.980Z,3.67
2023-05-14T13:49:17.559Z,3.80
2023-05-14T13:51:44.333Z,3.90
2023-05-14T13:54:10.853Z,5.53
2023-05-14T13:56:37.391Z,7.30
2023-05-14T13:59:04.147Z,3.72
2023-05-14T14:01:31.054Z,3.97
2023-05-14T14:03:57.796Z,4.65
2023-05-14T14:06:26.139Z,3.70
2023-05-14T14:08:53.089Z,5.75
2023-05-14T14:13:11.008Z,4.65
2023-05-14T14:15:37.474Z,3.65
2023-05-14T14:18:04.178Z,4.45
2023-05-14T14:20:31.280Z,5.38
2023-05-14T14:22:58.387Z,3.92
2023-05-14T14:25:25.048Z,6.20
2023-05-14T14:27:51.682Z,4.22
2023-05-14T14:30:19.100Z,6.47
2023-05-14T14:32:47.097Z,5.45
2023-05-14T14:35:15.777Z,4.78
2023-05-14T14:37:45.099Z,5.05
2023-05-14T14:40:12.017Z,4.30
2023-05-14T14:42:44.109Z,4.25
2023-05-14T14:45:11.428Z,3.70
2023-05-14T14:47:37.947Z,5.00
2023-05-14T14:50:05.153Z,3.67
2023-05-14T14:52:31.660Z,4.10
2023-05-14T14:54:58.105Z,5.53
2023-05-14T14:57:24.732Z,8.63
2023-05-14T14:59:51.196Z,2.83
2023-05-14T15:02:17.766Z,5.93
2023-05-14T15:04:44.263Z,4.82
2023-05-14T15:07:11.179Z,3.53
2023-05-14T15:09:37.704Z,3.13
2023-05-14T15:12:04.506Z,5.07
2023-05-14T15:14:30.971Z,3.85
2023-05-14T15:16:57.482Z,4.22
2023-05-14T15:19:23.920Z,4.75
2023-05-14T15:21:50.480Z,4.20
2023-05-14T15:24:16.921Z,4.90
2023-05-14T15:26:43.380Z,4.50
2023-05-14T15:29:09.926Z,4.97
2023-05-14T15:31:36.481Z,3.80
2023-05-14T15:34:03.612Z,5.10
2023-05-14T15:36:30.094Z,4.25
2023-05-14T15:38:56.537Z,4.65
2023-05-14T15:41:25.555Z,5.95
2023-05-14T15:43:52.125Z,4.20
2023-05-14T15:46:18.599Z,8.40
2023-05-14T15:48:45.816Z,7.40
2023-05-14T15:51:12.739Z,4.20
2023-05-14T15:53:39.187Z,7.15
2023-05-14T15:56:06.015Z,6.03
2023-05-14T15:58:32.540Z,10.23
2023-05-14T16:00:59.022Z,4.32
2023-05-14T16:03:25.696Z,5.25
2023-05-14T16:05:52.290Z,5.32
2023-05-14T16:08:18.887Z,6.35
2023-05-14T16:10:45.425Z,8.48
2023-05-14T16:13:11.925Z,4.50
2023-05-14T16:15:39.817Z,4.18
2023-05-14T16:18:06.570Z,5.70
2023-05-14T16:20:33.094Z,4.95
2023-05-14T16:22:59.504Z,6.13
2023-05-14T16:25:26.017Z,5.78
2023-05-14T16:27:53.082Z,4.88
2023-05-14T16:30:19.701Z,8.27
2023-05-14T16:32:49.367Z,5.45
2023-05-14T16:35:16.995Z,5.45
2023-05-14T16:37:43.730Z,6.07
2023-05-14T16:40:11.728Z,4.72
2023-05-14T16:42:38.731Z,5.20
2023-05-14T16:45:05.584Z,5.13
2023-05-14T16:47:32.234Z,6.43
2023-05-14T16:49:58.866Z,7.97
2023-05-14T16:52:25.537Z,5.68
2023-05-14T16:54:52.064Z,9.50
2023-05-14T16:57:18.526Z,5.88
2023-05-14T16:59:44.994Z,4.25
2023-05-14T17:02:11.570Z,7.63
2023-05-14T17:04:41.847Z,5.80
2023-05-14T17:07:08.440Z,7.15
2023-05-14T17:09:34.905Z,9.90
2023-05-14T17:12:01.409Z,7.13
2023-05-14T17:14:28.011Z,8.98
2023-05-14T17:16:57.671Z,7.05
2023-05-14T17:19:24.225Z,8.77
2023-05-14T17:21:50.939Z,5.00
2023-05-14T17:24:17.399Z,7.50
2023-05-14T17:26:44.009Z,6.65
2023-05-14T17:29:10.568Z,7.88
2023-05-14T17:31:37.026Z,4.55
2023-05-14T17:34:03.491Z,5.90
2023-05-14T17:36:31.602Z,5.40
2023-05-14T17:38:58.205Z,8.18
2023-05-14T17:41:24.712Z,6.75
2023-05-14T17:43:52.480Z,8.27
2023-05-14T17:46:19.215Z,5.60
2023-05-14T17:48:45.729Z,6.75
2023-05-14T17:51:12.403Z,8.93
2023-05-14T17:53:38.949Z,5.45
2023-05-14T17:56:05.674Z,4.38
2023-05-14T17:58:32.324Z,6.35
2023-05-14T18:00:58.880Z,10.82
2023-05-14T18:03:25.500Z,7.35
2023-05-14T18:05:52.034Z,6.60
2023-05-14T18:08:18.905Z,6.30
2023-05-14T18:10:45.475Z,7.95
2023-05-14T18:13:17.263Z,14.30
2023-05-14T18:15:43.827Z,9.40
2023-05-14T18:18:10.792Z,6.18
2023-05-14T18:20:37.375Z,10.60
2023-05-14T18:23:03.900Z,5.50
2023-05-14T18:25:30.493Z,10.40
2023-05-14T18:27:56.951Z,13.85
2023-05-14T18:30:23.391Z,7.15
2023-05-14T18:32:50.203Z,8.00
2023-05-14T18:35:16.908Z,9.00
2023-05-14T18:37:43.407Z,9.75
2023-05-14T18:40:11.211Z,12.23
2023-05-14T18:42:38.060Z,9.45
2023-05-14T18:45:04.737Z,8.48
2023-05-14T18:47:32.142Z,9.13
2023-05-14T18:50:00.423Z,7.22
2023-05-14T18:52:27.507Z,8.00
2023-05-14T18:54:54.967Z,8.27
2023-05-14T18:57:22.239Z,7.53
2023-05-14T18:59:48.863Z,6.53
2023-05-14T19:02:25.578Z,6.07
2023-05-14T19:04:53.172Z,10.60
2023-05-14T19:07:22.572Z,6.45
2023-05-14T19:09:49.254Z,8.82
2023-05-14T19:12:16.093Z,5.55
2023-05-14T19:14:42.691Z,8.13
2023-05-14T19:17:09.271Z,11.10
2023-05-14T19:19:35.966Z,8.45
2023-05-14T19:22:02.460Z,8.43
2023-05-14T19:24:29.008Z,7.10
2023-05-14T19:26:55.755Z,8.60
2023-05-14T19:29:22.223Z,6.95
2023-05-14T19:31:49.347Z,11.82
2023-05-14T19:34:16.020Z,10.27
2023-05-14T19:36:42.572Z,8.13
2023-05-14T19:39:09.578Z,7.10
2023-05-14T19:41:36.144Z,7.55
2023-05-14T19:44:02.630Z,10.35
2023-05-14T19:46:29.140Z,8.15
2023-05-14T19:48:55.589Z,9.02
2023-05-14T19:51:22.092Z,9.43
2023-05-14T19:53:48.770Z,12.02
2023-05-14T19:56:19.366Z,8.35
2023-05-14T19:58:45.833Z,9.00
2023-05-14T20:01:12.403Z,8.43
2023-05-14T20:03:39.206Z,11.05
2023-05-14T20:06:07.112Z,9.20
2023-05-14T20:08:33.717Z,8.13
2023-05-14T20:11:00.458Z,8.90
2023-05-14T20:13:27.020Z,10.77
2023-05-14T20:15:55.048Z,9.82
2023-05-14T20:18:21.707Z,11.15
2023-05-14T20:20:48.941Z,8.30
2023-05-14T20:23:15.614Z,9.25
2023-05-14T20:25:43.052Z,8.25
2023-05-14T20:28:09.875Z,7.93
2023-05-14T20:30:36.408Z,9.27
2023-05-14T20:33:02.960Z,9.05
2023-05-14T20:35:29.395Z,10.45
2023-05-14T20:37:56.251Z,10.77
2023-05-14T20:40:22.883Z,10.48
2023-05-14T20:42:50.397Z,10.63
2023-05-14T20:45:17.088Z,9.13
2023-05-14T20:47:43.597Z,9.05
2023-05-14T20:50:10.670Z,10.45
2023-05-14T20:52:37.183Z,10.85
2023-05-14T20:55:03.882Z,11.02
2023-05-14T20:57:30.392Z,7.80
2023-05-14T20:59:56.870Z,9.07
2023-05-14T21:02:26.286Z,10.05
2023-05-14T21:04:52.930Z,14.85
2023-05-14T21:07:19.491Z,13.48
2023-05-14T21:09:50.788Z,11.73
2023-05-14T21:12:17.314Z,11.48
2023-05-14T21:14:43.778Z,13.30
2023-05-14T21:17:10.602Z,12.43
2023-05-14T21:19:37.157Z,11.05
2023-05-14T21:22:03.740Z,10.23
2023-05-14T21:24:30.184Z,10.00
2023-05-14T21:26:56.694Z,11.10
2023-05-14T21:29:23.255Z,13.15
2023-05-14T21:31:50.136Z,11.40
2023-05-14T21:34:16.710Z,11.10
2023-05-14T21:36:43.258Z,11.38
2023-05-14T21:39:09.696Z,12.55
2023-05-14T21:41:36.159Z,11.48
2023-05-14T21:44:02.589Z,10.05
2023-05-14T21:46:29.145Z,10.43
2023-05-14T21:48:56.952Z,13.82
2023-05-14T21:51:24.638Z,9.90
2023-05-14T21:53:51.102Z,9.68
2023-05-14T21:56:17.582Z,14.68
2023-05-14T21:58:44.598Z,10.35
2023-05-14T22:01:11.609Z,12.65
2023-05-14T22:03:38.332Z,10.90
2023-05-14T22:06:05.340Z,10.43
2023-05-14T22:08:32.212Z,10.52
2023-05-14T22:10:58.753Z,18.08
2023-05-14T22:13:25.298Z,12.02
2023-05-14T22:16:01.215Z,14.07
2023-05-14T22:18:36.584Z,11.90
2023-05-14T22:21:03.306Z,11.93
2023-05-14T22:23:29.834Z,12.48
2023-05-14T22:25:56.960Z,13.55
2023-05-14T22:28:23.639Z,12.20
2023-05-14T22:30:50.153Z,15.68
2023-05-14T22:33:16.713Z,12.98
2023-05-14T22:35:43.222Z,20.98
2023-05-14T22:38:09.732Z,14.80
2023-05-14T22:40:36.386Z,12.80
2023-05-14T22:43:02.830Z,14.68
2023-05-14T22:45:30.528Z,16.52
2023-05-14T22:47:59.539Z,14.55
2023-05-14T22:50:26.233Z,15.52
2023-05-14T22:52:52.730Z,15.30
2023-05-14T22:55:19.258Z,13.90
2023-05-14T22:57:45.703Z,14.52
2023-05-14T23:00:12.842Z,19.70
2023-05-14T23:02:39.418Z,14.73
2023-05-14T23:05:07.818Z,16.63
2023-05-14T23:07:35.046Z,17.15
2023-05-14T23:10:01.889Z,17.85
2023-05-14T23:12:28.513Z,16.30
2023-05-14T23:14:54.931Z,17.25
2023-05-14T23:17:21.443Z,22.40
2023-05-14T23:19:47.969Z,15.70
2023-05-14T23:22:14.422Z,16.33
2023-05-14T23:24:40.910Z,14.93
2023-05-14T23:27:07.632Z,12.65
2023-05-14T23:29:34.148Z,14.85
2023-05-14T23:32:00.667Z,18.70
2023-05-14T23:34:27.219Z,15.55
2023-05-14T23:36:53.801Z,13.20
2023-05-14T23:39:21.221Z,16.42
2023-05-14T23:41:47.619Z,15.60
2023-05-14T23:44:14.189Z,18.70
2023-05-14T23:46:40.714Z,16.88
2023-05-14T23:49:07.679Z,21.30
2023-05-14T23:51:34.210Z,16.55
2023-05-14T23:54:00.663Z,17.70
2023-05-14T23:56:29.056Z,16.25
2023-05-14T23:58:56.688Z,17.08
